Time;durP1;ratioP1;P1;durP2;ratioP2;P2;SDS_P1;SDS_P2;PMS_P1;PMS_P2;Temp;Humidity;BMP_temperature;BMP_pressure;BME280_temperature;BME280_humidity;BME280_pressure;Samples;Min_cycle;Max_cycle;Signal;HPM_P1;HPM_P2
2024/01/12 00:00:43;;;;;;;1.85;0.40;;;;;;;-11.15;67.35;98325.72;5072150;28;20043;-64
2024/01/12 00:03:10;;;;;;;0.52;0.40;;;;;;;-11.20;67.28;98322.22;5072803;28;20039;-63
2024/01/12 00:05:36;;;;;;;1.00;0.47;;;;;;;-11.60;66.99;98265.09;5070405;28;20177;-63
2024/01/12 00:08:02;;;;;;;1.88;0.75;;;;;;;-11.51;66.78;98298.75;5068875;28;20606;-64
2024/01/12 00:10:28;;;;;;;2.10;0.70;;;;;;;-11.43;67.05;98305.69;5084650;28;20051;-63
2024/01/12 00:12:54;;;;;;;0.55;0.40;;;;;;;-11.31;66.60;98347.84;5072057;28;20466;-63
2024/01/12 00:15:20;;;;;;;0.88;0.40;;;;;;;-11.34;67.26;98341.06;5077955;28;20052;-64
2024/01/12 00:17:46;;;;;;;1.08;0.63;;;;;;;-11.64;66.92;98310.06;5074071;28;20040;-62
2024/01/12 00:20:12;;;;;;;2.95;0.63;;;;;;;-11.49;67.39;98329.72;5072268;28;20055;-64
2024/01/12 00:22:38;;;;;;;1.08;0.75;;;;;;;-11.38;67.25;98355.97;5067742;28;20519;-64
2024/01/12 00:25:04;;;;;;;1.10;0.65;;;;;;;-11.44;67.11;98351.63;5056166;28;20119;-63
2024/01/12 00:27:30;;;;;;;1.60;0.55;;;;;;;-11.42;66.90;98356.69;5067741;28;20063;-62
2024/01/12 00:29:56;;;;;;;1.80;0.70;;;;;;;-11.43;67.02;98347.47;5071138;28;20507;-63
2024/01/12 00:32:22;;;;;;;1.55;1.02;;;;;;;-11.45;66.62;98344.03;5068360;28;20041;-63
2024/01/12 00:34:48;;;;;;;3.92;1.08;;;;;;;-11.49;66.76;98338.09;5067813;28;20074;-62
2024/01/12 00:37:14;;;;;;;1.65;0.60;;;;;;;-11.56;66.64;98332.88;5069922;28;20263;-62
2024/01/12 00:39:40;;;;;;;3.92;1.25;;;;;;;-11.47;66.97;98356.56;5073848;28;20093;-63
2024/01/12 00:42:06;;;;;;;1.58;0.88;;;;;;;-11.47;66.93;98349.03;5049016;28;20041;-63
2024/01/12 00:44:31;;;;;;;1.25;0.57;;;;;;;-11.56;67.73;98328.66;5071974;28;20047;-63
2024/01/12 00:46:57;;;;;;;2.90;1.55;;;;;;;-11.43;67.34;98360.84;5069796;28;20036;-63
2024/01/12 00:49:23;;;;;;;3.63;0.70;;;;;;;-11.43;67.36;98350.81;5072617;28;20047;-62
2024/01/12 00:51:49;;;;;;;1.20;0.57;;;;;;;-11.41;67.53;98358.41;5063191;28;20036;-63
2024/01/12 00:54:15;;;;;;;2.58;0.90;;;;;;;-11.39;67.93;98354.25;5069590;28;20048;-63
2024/01/12 00:56:42;;;;;;;1.05;0.70;;;;;;;-11.37;67.77;98355.16;5068762;28;20048;-62
2024/01/12 00:59:08;;;;;;;2.55;0.65;;;;;;;-11.69;67.80;98307.41;5066576;28;20575;-62
2024/01/12 01:01:34;;;;;;;0.70;0.45;;;;;;;-11.47;67.67;98349.03;5071436;28;20067;-63
2024/01/12 01:04:01;;;;;;;2.17;0.82;;;;;;;-11.44;67.92;98348.25;5071708;28;20042;-63
2024/01/12 01:06:28;;;;;;;3.85;1.20;;;;;;;-11.47;67.63;98351.53;5058245;28;20036;-63
2024/01/12 01:08:54;;;;;;;1.52;0.68;;;;;;;-11.42;67.93;98350.03;5053563;28;20052;-63
2024/01/12 01:11:20;;;;;;;1.38;0.50;;;;;;;-11.39;67.65;98345.09;5057590;28;20470;-63
2024/01/12 01:13:46;;;;;;;5.18;1.40;;;;;;;-11.35;68.02;98333.47;5070801;28;20040;-60
2024/01/12 01:16:13;;;;;;;1.55;0.60;;;;;;;-11.39;67.66;98326.69;5073323;28;20044;-61
2024/01/12 01:18:39;;;;;;;7.10;0.68;;;;;;;-11.51;67.71;98326.34;5062205;28;20043;-62
2024/01/12 01:21:05;;;;;;;1.08;0.68;;;;;;;-11.42;68.17;98344.16;5076437;28;20040;-62
2024/01/12 01:23:30;;;;;;;2.60;1.02;;;;;;;-11.57;68.28;98311.97;5071595;28;20076;-62
2024/01/12 01:25:58;;;;;;;2.80;0.80;;;;;;;-11.40;68.53;98335.84;5072540;28;20104;-62
2024/01/12 01:28:24;;;;;;;1.38;0.77;;;;;;;-11.40;68.42;98345.88;5076952;28;20523;-64
2024/01/12 01:30:50;;;;;;;5.60;0.85;;;;;;;-11.44;68.40;98328.19;5067673;28;20060;-63
2024/01/12 01:33:16;;;;;;;0.95;0.73;;;;;;;-11.35;68.83;98343.50;5067659;28;20098;-62
2024/01/12 01:35:42;;;;;;;2.53;1.00;;;;;;;-11.26;68.66;98348.81;5072411;28;20047;-64
2024/01/12 01:38:08;;;;;;;1.73;0.68;;;;;;;-11.60;69.09;98299.31;5069180;28;20500;-64
2024/01/12 01:40:34;;;;;;;2.25;0.90;;;;;;;-11.20;69.36;98357.34;5063888;28;20098;-63
2024/01/12 01:43:08;;;;;;;2.50;0.80;;;;;;;-11.12;69.29;98354.22;5069698;28;20531;-63
2024/01/12 01:45:36;;;;;;;0.73;0.52;;;;;;;-11.04;69.85;98347.78;5069090;28;20113;-62
2024/01/12 01:48:04;;;;;;;1.42;0.70;;;;;;;-10.97;69.46;98342.97;5068915;28;20044;-63
2024/01/12 01:50:31;;;;;;;3.42;0.85;;;;;;;-10.81;69.56;98340.09;5079916;28;20036;-63
2024/01/12 01:52:58;;;;;;;4.53;1.40;;;;;;;-10.78;69.80;98319.25;5069205;28;20504;-63
2024/01/12 01:55:24;;;;;;;1.17;0.60;;;;;;;-10.75;69.34;98297.59;5070958;28;20097;-60
2024/01/12 01:57:50;;;;;;;1.42;0.80;;;;;;;-10.31;69.33;98345.63;5068025;28;20684;-63
2024/01/12 02:00:17;;;;;;;2.05;0.88;;;;;;;-10.14;69.43;98356.03;5076822;28;20047;-62
2024/01/12 02:02:43;;;;;;;2.40;0.55;;;;;;;-10.08;69.47;98352.03;5071002;28;20047;-62
2024/01/12 02:05:10;;;;;;;1.00;0.52;;;;;;;-9.95;69.39;98356.56;5052181;28;20044;-62
2024/01/12 02:07:37;;;;;;;2.92;1.08;;;;;;;-10.41;68.92;98261.63;5083492;28;20032;-62
2024/01/12 02:10:03;;;;;;;3.20;0.68;;;;;;;-9.83;69.47;98345.94;5068424;28;20032;-65
2024/01/12 02:12:30;;;;;;;2.97;0.65;;;;;;;-10.20;68.74;98271.34;5077714;28;20150;-62
2024/01/12 02:14:56;;;;;;;2.25;0.65;;;;;;;-9.89;68.86;98310.63;5070292;28;20408;-62
2024/01/12 02:17:22;;;;;;;5.38;1.05;;;;;;;-9.87;68.61;98304.78;5072241;28;20043;-62
2024/01/12 02:20:08;;;;;;;1.60;0.68;;;;;;;-9.88;68.73;98289.66;5077902;28;20051;-63
2024/01/12 02:22:34;;;;;;;1.15;0.88;;;;;;;-9.52;68.67;98340.78;5067403;28;20043;-62
2024/01/12 02:25:01;;;;;;;2.03;0.68;;;;;;;-9.66;69.18;98291.88;5071095;28;20044;-62
2024/01/12 02:27:30;;;;;;;2.80;1.00;;;;;;;-9.51;69.08;98308.97;5069189;28;20047;-63
2024/01/12 02:29:57;;;;;;;3.03;0.68;;;;;;;-9.71;69.42;98278.34;5070367;28;20059;-63
2024/01/12 02:32:23;;;;;;;1.15;0.55;;;;;;;-9.61;68.57;98309.56;5080102;28;20603;-63
2024/01/12 02:34:50;;;;;;;5.13;0.90;;;;;;;-9.49;68.78;98329.97;5066479;28;20093;-62
2024/01/12 02:37:16;;;;;;;3.38;0.98;;;;;;;-9.48;69.26;98326.66;5072358;28;20036;-63
2024/01/12 02:39:42;;;;;;;1.52;0.65;;;;;;;-9.42;69.28;98319.25;5073928;28;20048;-64
2024/01/12 02:42:08;;;;;;;1.15;0.60;;;;;;;-9.38;68.73;98310.94;5075041;28;20119;-62
2024/01/12 02:44:34;;;;;;;1.13;0.65;;;;;;;-9.57;69.19;98286.19;5073718;28;20043;-59
2024/01/12 02:47:00;;;;;;;2.25;0.90;;;;;;;-9.25;68.67;98322.94;5076062;28;20106;-63
2024/01/12 02:49:26;;;;;;;2.63;0.90;;;;;;;-9.26;68.39;98311.19;5075270;28;20473;-62
2024/01/12 02:51:52;;;;;;;0.63;0.60;;;;;;;-9.27;69.05;98316.19;5077127;28;20591;-63
2024/01/12 02:54:18;;;;;;;3.25;0.70;;;;;;;-9.17;68.35;98311.41;5081412;28;20131;-63
2024/01/12 02:56:44;;;;;;;1.42;0.43;;;;;;;-9.15;68.86;98304.72;5096513;27;20044;-65
2024/01/12 02:59:09;;;;;;;0.75;0.43;;;;;;;-9.28;68.54;98289.34;5050505;28;20474;-61
2024/01/12 03:01:35;;;;;;;5.25;1.02;;;;;;;-9.33;67.56;98306.84;5080003;28;20043;-63
2024/01/12 03:04:02;;;;;;;1.15;0.70;;;;;;;-9.25;68.50;98307.00;5077755;28;20128;-63
2024/01/12 03:06:27;;;;;;;1.00;0.40;;;;;;;-9.24;68.63;98294.47;5074175;28;20046;-64
2024/01/12 03:08:53;;;;;;;1.83;1.00;;;;;;;-9.60;68.02;98223.25;5073141;28;20036;-64
2024/01/12 03:11:19;;;;;;;1.98;0.50;;;;;;;-9.27;68.22;98266.75;5073924;28;20067;-63
2024/01/12 03:13:45;;;;;;;4.38;1.13;;;;;;;-9.13;68.21;98304.75;5069681;28;20120;-64
2024/01/12 03:16:20;;;;;;;1.75;0.63;;;;;;;-9.37;68.56;98239.69;5073877;28;20036;-64
2024/01/12 03:18:50;;;;;;;0.80;0.55;;;;;;;-9.10;68.46;98293.06;5058065;28;20040;-62
2024/01/12 03:21:16;;;;;;;1.10;0.60;;;;;;;-9.00;68.28;98294.09;5075233;28;20039;-63
2024/01/12 03:23:42;;;;;;;2.60;1.00;;;;;;;-8.96;68.72;98307.63;5072432;28;20581;-64
2024/01/12 03:26:08;;;;;;;1.92;0.60;;;;;;;-8.94;68.69;98308.47;5072215;28;20044;-64
2024/01/12 03:28:36;;;;;;;3.80;1.10;;;;;;;-8.92;68.94;98306.84;5072905;28;20389;-63
2024/01/12 03:31:06;;;;;;;1.90;1.02;;;;;;;-8.93;69.36;98300.13;5074269;28;20059;-63
2024/01/12 03:33:33;;;;;;;1.73;0.70;;;;;;;-8.90;69.97;98307.75;5068775;28;20047;-63
2024/01/12 03:36:00;;;;;;;6.00;0.68;;;;;;;-8.92;69.50;98306.84;5076839;28;20500;-62
2024/01/12 03:38:26;;;;;;;2.83;0.63;;;;;;;-8.90;69.80;98295.16;5071078;28;20054;-62
2024/01/12 03:40:52;;;;;;;3.53;0.70;;;;;;;-8.97;69.48;98300.88;5091114;28;20036;-63
2024/01/12 03:43:17;;;;;;;2.08;0.70;;;;;;;-8.98;69.99;98289.97;5068748;28;20055;-63
2024/01/12 03:45:43;;;;;;;2.30;0.98;;;;;;;-9.01;70.12;98294.94;5070989;28;20044;-64
2024/01/12 03:48:09;;;;;;;3.30;0.80;;;;;;;-8.97;69.17;98298.38;5068667;28;20044;-63
2024/01/12 03:50:35;;;;;;;8.25;0.98;;;;;;;-9.02;70.14;98293.25;5072085;28;20485;-62
2024/01/12 03:53:01;;;;;;;1.80;0.77;;;;;;;-9.00;69.66;98294.94;5072453;28;20047;-63
2024/01/12 03:55:27;;;;;;;4.03;1.10;;;;;;;-9.16;69.57;98284.56;5074052;28;20048;-64
2024/01/12 03:57:54;;;;;;;1.90;0.60;;;;;;;-9.33;68.78;98284.22;5072519;28;20037;-64
2024/01/12 04:00:20;;;;;;;3.88;1.20;;;;;;;-9.64;68.51;98265.09;5071236;28;20424;-65
2024/01/12 04:02:46;;;;;;;1.15;0.52;;;;;;;-9.42;68.76;98304.97;5075106;28;20036;-64
2024/01/12 04:05:12;;;;;;;3.03;0.98;;;;;;;-9.39;69.92;98280.72;5072072;28;20040;-65
2024/01/12 04:07:38;;;;;;;6.63;0.93;;;;;;;-9.58;69.61;98252.66;5080362;28;20044;-63
2024/01/12 04:10:04;;;;;;;1.65;0.80;;;;;;;-9.33;69.35;98289.25;5070269;28;20554;-63
2024/01/12 04:12:31;;;;;;;6.50;0.85;;;;;;;-9.56;70.00;98228.38;5071706;28;20110;-63
2024/01/12 04:14:57;;;;;;;0.73;0.30;;;;;;;-9.06;69.70;98292.34;5071354;28;20041;-62
2024/01/12 04:17:23;;;;;;;1.95;1.10;;;;;;;-9.21;69.81;98249.22;5071027;28;20041;-62
2024/01/12 04:19:49;;;;;;;1.60;0.85;;;;;;;-8.82;70.01;98293.63;5071486;28;20091;-64
2024/01/12 04:22:15;;;;;;;2.60;0.90;;;;;;;-8.72;69.32;98281.25;5071609;28;20068;-63
2024/01/12 04:24:41;;;;;;;1.80;0.90;;;;;;;-8.76;69.17;98286.19;5071573;28;20857;-63
2024/01/12 04:27:07;;;;;;;5.53;0.93;;;;;;;-8.91;69.34;98268.28;5072634;28;20045;-63
2024/01/12 04:29:34;;;;;;;1.17;0.65;;;;;;;-8.94;69.91;98280.78;5069683;28;20108;-64
2024/01/12 04:32:00;;;;;;;1.95;0.98;;;;;;;-8.97;69.02;98273.19;5072623;28;20053;-65
2024/01/12 04:34:25;;;;;;;0.65;0.47;;;;;;;-9.06;69.08;98281.41;5067027;28;20117;-61
2024/01/12 04:36:53;;;;;;;5.80;0.98;;;;;;;-9.09;69.26;98267.09;5075576;28;20039;-62
2024/01/12 04:39:20;;;;;;;3.63;0.68;;;;;;;-8.99;70.18;98280.69;5066411;28;20093;-63
2024/01/12 04:41:46;;;;;;;2.55;0.88;;;;;;;-8.91;69.22;98278.34;5071874;28;20044;-60
2024/01/12 04:44:12;;;;;;;5.93;1.08;;;;;;;-8.88;69.58;98288.47;5071251;28;20147;-63
2024/01/12 04:46:38;;;;;;;2.50;1.02;;;;;;;-8.80;69.40;98274.38;5071278;28;20152;-62
2024/01/12 04:49:04;;;;;;;0.43;0.30;;;;;;;-8.87;68.79;98267.50;5073948;28;20040;-62
2024/01/12 04:51:30;;;;;;;2.88;0.75;;;;;;;-9.00;68.38;98251.31;5077888;28;20047;-63
2024/01/12 04:53:55;;;;;;;6.63;1.02;;;;;;;-9.11;68.84;98238.56;5072004;28;20049;-63
2024/01/12 04:56:21;;;;;;;2.10;0.55;;;;;;;-8.80;68.93;98271.84;5073533;28;20622;-62
2024/01/12 04:58:47;;;;;;;3.92;0.63;;;;;;;-8.83;68.89;98277.66;5067136;28;20135;-63
2024/01/12 05:01:13;;;;;;;1.83;0.43;;;;;;;-8.78;68.75;98272.72;5070562;28;20771;-64
2024/01/12 05:03:41;;;;;;;3.42;1.35;;;;;;;-8.81;68.49;98268.50;5069704;28;20044;-62
2024/01/12 05:06:07;;;;;;;3.88;1.10;;;;;;;-8.69;68.53;98276.25;5074779;28;20144;-58
2024/01/12 05:08:34;;;;;;;1.98;0.47;;;;;;;-8.54;68.87;98264.78;5071352;28;20037;-63
2024/01/12 05:11:00;;;;;;;1.63;0.68;;;;;;;-8.48;69.22;98272.44;5067864;28;20032;-62
2024/01/12 05:13:26;;;;;;;3.08;0.80;;;;;;;-8.36;69.32;98263.41;5069412;28;20041;-62
2024/01/12 05:15:51;;;;;;;2.92;0.98;;;;;;;-8.30;69.27;98271.06;5058982;28;20059;-63
2024/01/12 05:18:18;;;;;;;2.20;1.08;;;;;;;-8.20;69.38;98282.13;5079442;28;20046;-61
2024/01/12 05:20:44;;;;;;;4.95;0.90;;;;;;;-8.09;69.42;98282.31;5067826;28;20499;-63
2024/01/12 05:23:09;;;;;;;3.58;0.70;;;;;;;-8.00;69.17;98288.34;5074780;28;20031;-65
2024/01/12 05:25:35;;;;;;;1.35;0.65;;;;;;;-7.96;69.14;98281.69;5075380;28;20050;-64
2024/01/12 05:28:01;;;;;;;5.63;0.80;;;;;;;-8.06;68.99;98247.06;5036414;28;20040;-64
2024/01/12 05:30:27;;;;;;;2.92;1.05;;;;;;;-7.83;68.89;98273.47;5068954;28;20036;-64
2024/01/12 05:32:53;;;;;;;1.98;1.10;;;;;;;-8.15;69.44;98222.56;5068208;28;20044;-64
2024/01/12 05:35:19;;;;;;;3.55;0.80;;;;;;;-7.97;69.56;98244.69;5067471;28;20509;-63
2024/01/12 05:37:44;;;;;;;2.72;1.00;;;;;;;-7.74;69.09;98273.59;5068417;28;20047;-63
2024/01/12 05:40:11;;;;;;;2.58;0.75;;;;;;;-7.89;69.54;98241.44;5065119;28;20064;-64
2024/01/12 05:42:37;;;;;;;2.58;0.95;;;;;;;-7.67;69.56;98284.66;5053534;28;20070;-63
2024/01/12 05:45:03;;;;;;;1.83;1.20;;;;;;;-7.75;69.58;98269.41;5056696;28;20051;-64
2024/01/12 05:47:29;;;;;;;2.10;1.00;;;;;;;-7.70;69.36;98270.34;5069557;28;20392;-63
2024/01/12 05:49:55;;;;;;;5.18;1.13;;;;;;;-7.77;69.37;98271.06;5057932;28;20047;-64
2024/01/12 05:52:21;;;;;;;3.25;1.35;;;;;;;-7.67;69.21;98277.94;5073882;28;20752;-66
2024/01/12 05:54:47;;;;;;;3.65;1.17;;;;;;;-7.67;69.28;98275.41;5078165;28;20048;-68
2024/01/12 05:57:13;;;;;;;2.65;0.80;;;;;;;-7.92;69.72;98228.81;5079561;28;20086;-69
2024/01/12 05:59:39;;;;;;;4.55;1.30;;;;;;;-7.59;69.40;98288.16;5059750;28;20052;-67
2024/01/12 06:02:05;;;;;;;4.28;1.05;;;;;;;-7.63;69.50;98274.63;5052133;28;20041;-69
2024/01/12 06:04:31;;;;;;;2.33;0.60;;;;;;;-7.64;69.77;98274.63;5052934;28;20075;-65
2024/01/12 06:06:57;;;;;;;4.47;0.90;;;;;;;-7.61;69.06;98283.06;5051949;28;20087;-67
2024/01/12 06:09:22;;;;;;;1.73;0.95;;;;;;;-7.68;69.21;98266.13;5072795;28;20040;-68
2024/01/12 06:11:48;;;;;;;2.50;1.05;;;;;;;-7.56;69.21;98273.91;5069949;28;20043;-69
2024/01/12 06:14:16;;;;;;;1.35;0.95;;;;;;;-7.57;69.50;98286.47;5074045;28;20113;-66
2024/01/12 06:16:42;;;;;;;1.42;0.75;;;;;;;-7.79;69.22;98250.84;5069040;28;20586;-65
2024/01/12 06:19:08;;;;;;;2.20;1.00;;;;;;;-7.64;69.24;98267.06;5071649;28;20802;-66
2024/01/12 06:21:34;;;;;;;5.60;0.90;;;;;;;-7.57;69.15;98279.75;5072764;28;20047;-66
2024/01/12 06:23:59;;;;;;;3.15;1.10;;;;;;;-7.72;69.09;98257.69;5072350;28;20054;-65
2024/01/12 06:26:25;;;;;;;1.85;0.82;;;;;;;-7.46;68.68;98308.53;5073261;28;20040;-67
2024/01/12 06:28:51;;;;;;;8.85;1.10;;;;;;;-7.58;68.51;98280.56;5071174;28;20043;-66
2024/01/12 06:31:17;;;;;;;4.45;0.82;;;;;;;-7.47;68.72;98306.81;5078961;28;20050;-67
2024/01/12 06:33:43;;;;;;;8.63;1.42;;;;;;;-7.92;68.11;98226.28;5077344;28;20044;-65
2024/01/12 06:36:09;;;;;;;3.42;0.68;;;;;;;-7.40;68.41;98308.63;5073662;28;20044;-68
2024/01/12 06:38:35;;;;;;;4.40;1.35;;;;;;;-7.74;68.22;98254.28;5073039;28;20064;-65
2024/01/12 06:41:02;;;;;;;4.10;1.33;;;;;;;-7.41;68.46;98303.53;5074619;28;20126;-65
2024/01/12 06:43:28;;;;;;;1.10;0.60;;;;;;;-7.79;68.02;98237.38;5070922;28;20047;-66
2024/01/12 06:45:54;;;;;;;3.67;1.00;;;;;;;-7.38;68.00;98303.59;5061503;28;20045;-65
2024/01/12 06:48:20;;;;;;;2.08;0.80;;;;;;;-7.30;67.70;98314.63;5078592;28;20040;-67
2024/01/12 06:50:46;;;;;;;0.93;0.60;;;;;;;-7.27;67.90;98314.66;5070847;28;20642;-67
2024/01/12 06:53:14;;;;;;;1.60;0.77;;;;;;;-7.24;67.77;98314.72;5077415;28;20040;-65
2024/01/12 06:55:40;;;;;;;1.42;0.80;;;;;;;-7.24;67.01;98311.34;5071421;28;20547;-66
2024/01/12 06:58:05;;;;;;;1.70;1.02;;;;;;;-7.27;67.34;98309.63;5070997;28;20048;-66
2024/01/12 07:00:31;;;;;;;1.48;0.70;;;;;;;-7.27;67.18;98315.50;5078999;28;20528;-65
2024/01/12 07:02:57;;;;;;;4.22;0.60;;;;;;;-7.25;67.03;98304.59;5077321;28;20044;-65
2024/01/12 07:05:25;;;;;;;2.90;0.70;;;;;;;-7.10;67.01;98310.69;5073478;28;20082;-66
2024/01/12 07:07:50;;;;;;;2.33;0.98;;;;;;;-7.22;66.54;98280.22;5073167;28;20465;-65
2024/01/12 07:10:16;;;;;;;4.18;0.70;;;;;;;-6.90;66.26;98321.91;5071369;28;20033;-68
2024/01/12 07:12:43;;;;;;;2.15;1.13;;;;;;;-6.86;66.28;98327.84;5055083;28;20063;-67
2024/01/12 07:15:10;;;;;;;0.98;0.60;;;;;;;-6.82;66.00;98327.06;5073179;28;20040;-65
2024/01/12 07:17:36;;;;;;;3.22;0.73;;;;;;;-6.83;66.31;98325.34;5071588;28;20052;-65
2024/01/12 07:20:02;;;;;;;1.75;0.80;;;;;;;-6.79;66.34;98342.25;5074719;28;20633;-65
2024/01/12 07:22:29;;;;;;;1.90;1.08;;;;;;;-6.74;66.42;98348.19;5074228;28;20047;-65
2024/01/12 07:24:55;;;;;;;4.40;1.10;;;;;;;-6.70;66.88;98354.16;5075337;28;20040;-65
2024/01/12 07:27:21;;;;;;;7.05;1.20;;;;;;;-7.01;67.46;98328.47;5071115;28;20044;-68
2024/01/12 07:29:47;;;;;;;5.10;1.33;;;;;;;-6.82;67.94;98364.09;5084457;28;20519;-65
2024/01/12 07:32:12;;;;;;;3.25;1.20;;;;;;;-6.80;67.78;98387.72;5070496;28;20535;-65
2024/01/12 07:34:38;;;;;;;10.63;3.10;;;;;;;-6.73;68.09;98392.00;5063699;28;20070;-66
2024/01/12 07:37:04;;;;;;;4.60;3.05;;;;;;;-6.83;67.86;98354.81;5072089;28;20041;-65
2024/01/12 07:39:30;;;;;;;2.67;1.20;;;;;;;-6.55;67.50;98395.63;5083104;28;20044;-67
2024/01/12 07:41:56;;;;;;;5.95;1.23;;;;;;;-6.56;67.21;98396.44;5071051;28;20097;-65
2024/01/12 07:44:21;;;;;;;2.90;1.73;;;;;;;-6.63;66.21;98399.72;5080810;28;20041;-65
2024/01/12 07:46:47;;;;;;;2.65;0.95;;;;;;;-6.74;65.47;98375.13;5072393;28;20070;-65
2024/01/12 07:49:13;;;;;;;3.92;1.17;;;;;;;-6.58;64.88;98398.09;5072845;28;20044;-65
2024/01/12 07:51:39;;;;;;;2.83;1.10;;;;;;;-6.72;64.59;98369.28;5067456;28;20043;-65
2024/01/12 07:54:05;;;;;;;2.58;0.90;;;;;;;-6.38;63.96;98402.56;5076804;28;20499;-67
2024/01/12 07:56:31;;;;;;;1.92;0.80;;;;;;;-6.34;63.52;98420.31;5076693;28;20052;-66
2024/01/12 07:58:57;;;;;;;1.95;0.90;;;;;;;-6.34;62.74;98422.00;5058250;28;20050;-65
2024/01/12 08:01:23;;;;;;;6.20;2.60;;;;;;;-6.36;62.20;98416.06;5070268;28;20036;-65
2024/01/12 08:03:50;;;;;;;6.60;1.10;;;;;;;-6.34;61.77;98424.53;5071550;28;20111;-65
2024/01/12 08:06:16;;;;;;;1.48;0.63;;;;;;;-6.42;61.69;98426.94;5090810;28;20131;-65
2024/01/12 08:08:42;;;;;;;6.63;0.75;;;;;;;-6.50;61.52;98433.59;5067058;28;20523;-65
2024/01/12 08:11:08;;;;;;;2.25;1.05;;;;;;;-6.78;60.63;98399.53;5072824;28;20032;-65
2024/01/12 08:13:34;;;;;;;3.85;1.00;;;;;;;-6.52;60.83;98431.03;5070398;28;20481;-65
2024/01/12 08:16:00;;;;;;;1.98;0.93;;;;;;;-6.64;60.66;98435.91;5077035;28;20042;-65
2024/01/12 08:18:26;;;;;;;3.00;1.25;;;;;;;-6.69;60.29;98429.09;5077690;28;20134;-66
2024/01/12 08:20:52;;;;;;;2.63;1.10;;;;;;;-6.57;60.27;98444.44;5054169;28;20579;-65
2024/01/12 08:23:18;;;;;;;2.60;0.98;;;;;;;-6.43;60.44;98450.50;5069088;28;20044;-66
2024/01/12 08:25:43;;;;;;;2.17;1.00;;;;;;;-6.34;60.08;98454.84;5077382;28;20090;-65
2024/01/12 08:28:09;;;;;;;7.78;2.30;;;;;;;-6.29;59.99;98456.63;5054259;28;20526;-66
2024/01/12 08:30:35;;;;;;;3.28;1.55;;;;;;;-6.21;59.90;98461.75;5070393;28;20032;-66
2024/01/12 08:33:01;;;;;;;5.20;1.58;;;;;;;-6.25;59.32;98453.28;5083772;28;20046;-65
2024/01/12 08:35:27;;;;;;;2.97;0.98;;;;;;;-6.53;59.56;98393.09;5071202;28;20134;-65
2024/01/12 08:37:53;;;;;;;4.05;1.35;;;;;;;-5.98;59.06;98464.56;5066800;28;20048;-66
2024/01/12 08:40:19;;;;;;;2.40;0.80;;;;;;;-6.01;58.83;98453.56;5068663;28;20044;-64
2024/01/12 08:42:45;;;;;;;1.88;0.80;;;;;;;-5.75;58.68;98473.19;5068679;28;20055;-65
2024/01/12 08:45:12;;;;;;;5.60;1.20;;;;;;;-5.62;58.23;98473.34;5078178;28;20040;-66
2024/01/12 08:47:38;;;;;;;4.55;1.23;;;;;;;-5.35;58.16;98477.84;5069349;28;20048;-65
2024/01/12 08:50:05;;;;;;;7.30;2.30;;;;;;;-5.30;57.83;98472.81;5071567;28;20040;-65
2024/01/12 08:52:31;;;;;;;7.05;1.30;;;;;;;-5.49;57.18;98438.00;5052291;28;20146;-65
2024/01/12 08:54:56;;;;;;;2.47;0.80;;;;;;;-4.47;57.29;98480.19;5068516;28;20611;-66
2024/01/12 08:57:22;;;;;;;4.28;0.90;;;;;;;-4.02;55.93;98480.38;5076890;28;20044;-64
2024/01/12 08:59:49;;;;;;;4.57;1.13;;;;;;;-4.11;55.53;98442.28;5075401;28;20036;-65
2024/01/12 09:02:14;;;;;;;2.15;0.93;;;;;;;-3.62;54.81;98478.00;5068076;28;20760;-64
2024/01/12 09:04:40;;;;;;;3.05;1.05;;;;;;;-3.99;54.44;98485.50;5070847;28;20138;-64
2024/01/12 09:07:06;;;;;;;3.08;1.15;;;;;;;-4.49;54.47;98461.56;5077675;28;20036;-66
2024/01/12 09:09:32;;;;;;;7.32;1.13;;;;;;;-4.66;54.78;98476.69;5071634;28;20043;-65
2024/01/12 09:11:58;;;;;;;2.17;1.20;;;;;;;-4.92;55.03;98483.25;5080167;28;20048;-64
2024/01/12 09:14:24;;;;;;;6.38;1.20;;;;;;;-5.01;55.14;98483.16;5071694;28;20043;-65
2024/01/12 09:16:50;;;;;;;4.85;1.30;;;;;;;-5.20;54.55;98487.25;5051318;28;20105;-65
2024/01/12 09:19:17;;;;;;;3.47;1.27;;;;;;;-5.21;55.26;98450.09;5065095;28;20098;-65
2024/01/12 09:21:44;;;;;;;4.47;1.20;;;;;;;-4.58;54.76;98490.25;5062186;28;20063;-65
2024/01/12 09:24:11;;;;;;;2.95;0.93;;;;;;;-4.22;53.97;98493.81;5069316;28;20064;-65
2024/01/12 09:26:37;;;;;;;2.72;1.60;;;;;;;-4.57;53.81;98465.75;5070494;28;20048;-65
2024/01/12 09:29:03;;;;;;;2.33;1.00;;;;;;;-4.78;53.75;98461.41;5067779;28;20142;-65
2024/01/12 09:31:29;;;;;;;4.38;1.45;;;;;;;-3.45;53.34;98491.56;5069768;28;20074;-65
2024/01/12 09:33:55;;;;;;;2.67;1.10;;;;;;;-3.06;51.86;98488.22;5069925;28;20044;-67
2024/01/12 09:36:21;;;;;;;1.98;1.08;;;;;;;-2.35;51.23;98500.88;5070301;28;20508;-67
2024/01/12 09:38:46;;;;;;;3.80;1.48;;;;;;;-1.40;49.58;98463.97;5066486;28;20071;-65
2024/01/12 09:41:12;;;;;;;1.48;0.98;;;;;;;-0.70;49.25;98468.53;5072718;28;20039;-65
2024/01/12 09:43:39;;;;;;;2.25;1.02;;;;;;;0.07;50.57;98502.63;5075462;28;20047;-64
2024/01/12 09:46:08;;;;;;;2.13;0.70;;;;;;;0.52;51.79;98501.22;5070269;28;20035;-65
2024/01/12 09:48:34;;;;;;;7.32;1.08;;;;;;;1.18;52.82;98501.97;5069236;28;20445;-66
2024/01/12 09:51:01;;;;;;;4.07;1.10;;;;;;;1.95;53.56;98522.81;5069171;28;20036;-67
2024/01/12 09:53:27;;;;;;;8.85;1.02;;;;;;;1.36;53.91;98456.44;5068252;28;20205;-66
2024/01/12 09:55:53;;;;;;;2.53;0.70;;;;;;;1.17;56.02;98500.25;5073596;28;20074;-65
2024/01/12 09:58:21;;;;;;;1.90;0.70;;;;;;;1.26;58.15;98506.94;5069229;28;20117;-66
2024/01/12 10:00:47;;;;;;;3.50;0.85;;;;;;;0.16;58.25;98502.50;5082435;28;20040;-65
2024/01/12 10:03:13;;;;;;;1.95;1.10;;;;;;;-1.74;60.07;98478.63;5059680;28;20040;-66
2024/01/12 10:05:41;;;;;;;3.30;1.17;;;;;;;-2.81;62.56;98477.22;5070968;28;20037;-65
2024/01/12 10:08:07;;;;;;;2.90;1.23;;;;;;;-3.35;64.73;98510.25;5067474;28;20037;-65
2024/01/12 10:10:33;;;;;;;1.95;0.65;;;;;;;-4.24;65.75;98480.31;5074827;28;20195;-65
2024/01/12 10:13:01;;;;;;;2.40;0.88;;;;;;;-4.71;67.55;98485.97;5078942;28;20048;-65
2024/01/12 10:15:29;;;;;;;2.13;0.90;;;;;;;-4.87;69.77;98517.94;5062993;28;20063;-66
2024/01/12 10:17:56;;;;;;;2.42;1.10;;;;;;;-5.14;70.89;98522.78;5078895;28;20036;-67
2024/01/12 10:20:22;;;;;;;2.28;1.08;;;;;;;-5.28;72.84;98534.44;5076554;28;20051;-67
2024/01/12 10:22:58;;;;;;;2.08;0.77;;;;;;;-5.41;73.74;98530.94;5064273;28;20150;-69
2024/01/12 10:25:24;;;;;;;1.58;0.73;;;;;;;-5.63;73.71;98534.09;5072354;28;20086;-66
2024/01/12 10:27:57;;;;;;;3.40;1.02;;;;;;;-6.07;74.56;98488.91;5069992;28;20205;-64
2024/01/12 10:30:23;;;;;;;3.00;1.00;;;;;;;-6.03;75.47;98522.69;5058676;28;20032;-66
2024/01/12 10:32:51;;;;;;;1.95;0.98;;;;;;;-6.14;75.96;98530.13;5078233;28;20117;-65
2024/01/12 10:35:20;;;;;;;4.72;1.30;;;;;;;-6.35;76.40;98504.56;5069516;28;20051;-65
2024/01/12 10:37:47;;;;;;;4.00;1.10;;;;;;;-6.29;76.99;98531.63;5083631;28;20040;-64
2024/01/12 10:40:17;;;;;;;1.35;0.80;;;;;;;-6.58;75.82;98514.34;5044502;28;20499;-65
2024/01/12 10:42:48;;;;;;;4.25;1.10;;;;;;;-6.60;75.19;98538.78;5071920;28;20047;-65
2024/01/12 10:45:23;;;;;;;3.67;1.30;;;;;;;-6.67;75.42;98544.56;5072406;28;20044;-64
2024/01/12 10:48:00;;;;;;;4.72;1.10;;;;;;;-6.86;74.10;98533.31;5063947;28;20183;-64
2024/01/12 10:50:26;;;;;;;2.00;0.98;;;;;;;-6.99;73.64;98535.59;5072965;28;20029;-64
2024/01/12 10:53:00;;;;;;;1.95;1.02;;;;;;;-7.05;73.27;98541.41;5077194;28;20048;-65
2024/01/12 10:55:33;;;;;;;2.47;0.80;;;;;;;-5.84;76.14;98533.84;5051718;28;20075;-64
2024/01/12 10:58:00;;;;;;;1.48;0.90;;;;;;;-3.75;73.00;98542.25;5068376;28;20040;-65
2024/01/12 11:00:26;;;;;;;3.17;0.82;;;;;;;-2.64;70.74;98492.47;5047545;28;20048;-65
2024/01/12 11:02:54;;;;;;;0.95;0.50;;;;;;;-1.51;68.93;98541.34;5072966;28;20051;-65
2024/01/12 11:05:21;;;;;;;1.63;0.68;;;;;;;-0.82;67.69;98547.72;5047747;28;20047;-66
2024/01/12 11:07:47;;;;;;;3.95;1.17;;;;;;;0.08;67.24;98546.91;5082389;28;20040;-64
2024/01/12 11:10:13;;;;;;;1.98;0.90;;;;;;;0.57;64.81;98544.63;5070029;28;20036;-66
2024/01/12 11:12:40;;;;;;;1.42;0.90;;;;;;;1.15;63.52;98554.91;5072283;28;20066;-65
2024/01/12 11:15:07;;;;;;;3.67;2.03;;;;;;;1.18;62.54;98486.59;5081546;28;20771;-64
2024/01/12 11:17:34;;;;;;;4.72;1.33;;;;;;;2.11;62.11;98556.69;5087398;28;20086;-66
2024/01/12 11:20:17;;;;;;;3.63;1.02;;;;;;;2.10;60.20;98550.72;5077477;28;20040;-65
2024/01/12 11:22:46;;;;;;;3.45;1.00;;;;;;;2.13;59.74;98558.38;5069494;28;20095;-66
2024/01/12 11:25:14;;;;;;;4.23;0.97;;;;;;;2.32;58.88;98550.31;5068141;28;20124;-64
2024/01/12 11:27:41;;;;;;;3.72;1.33;;;;;;;2.48;59.16;98557.69;5082689;28;20443;-66